sensor_id;sensor_type;location;lat;lon;timestamp;temperature;humidity
7562;DHT22;3822;48.784;9.174;2022-12-18T00:01:23;-2.80;81.70
7562;DHT22;3822;48.784;9.174;2022-12-18T00:03:54;-2.90;81.80
7562;DHT22;3822;48.784;9.174;2022-12-18T00:06:22;-2.90;81.90
7562;DHT22;3822;48.784;9.174;2022-12-18T00:08:49;-2.80;82.10
7562;DHT22;3822;48.784;9.174;2022-12-18T00:11:19;-1.90;83.00
7562;DHT22;3822;48.784;9.174;2022-12-18T00:13:47;-3.20;82.10
7562;DHT22;3822;48.784;9.174;2022-12-18T00:16:18;-3.20;82.30
7562;DHT22;3822;48.784;9.174;2022-12-18T00:18:47;-3.30;82.40
7562;DHT22;3822;48.784;9.174;2022-12-18T00:21:15;-3.30;82.50
7562;DHT22;3822;48.784;9.174;2022-12-18T00:23:43;-3.30;82.50
7562;DHT22;3822;48.784;9.174;2022-12-18T00:26:12;-3.30;82.50
7562;DHT22;3822;48.784;9.174;2022-12-18T00:28:41;-3.20;82.60
7562;DHT22;3822;48.784;9.174;2022-12-18T00:31:12;-3.20;82.50
7562;DHT22;3822;48.784;9.174;2022-12-18T00:33:40;-3.20;82.50
7562;DHT22;3822;48.784;9.174;2022-12-18T00:36:10;-3.20;82.50
7562;DHT22;3822;48.784;9.174;2022-12-18T00:38:41;-3.20;82.50
7562;DHT22;3822;48.784;9.174;2022-12-18T00:41:09;-3.20;82.50
7562;DHT22;3822;48.784;9.174;2022-12-18T00:43:37;-3.20;82.50
7562;DHT22;3822;48.784;9.174;2022-12-18T00:46:05;-3.20;82.40
7562;DHT22;3822;48.784;9.174;2022-12-18T00:48:32;-1.80;83.80
7562;DHT22;3822;48.784;9.174;2022-12-18T00:50:58;-3.40;82.50
7562;DHT22;3822;48.784;9.174;2022-12-18T00:53:25;-3.40;82.60
7562;DHT22;3822;48.784;9.174;2022-12-18T00:55:51;-3.40;82.60
7562;DHT22;3822;48.784;9.174;2022-12-18T00:58:18;-3.40;82.60
7562;DHT22;3822;48.784;9.174;2022-12-18T01:00:45;-3.30;82.80
7562;DHT22;3822;48.784;9.174;2022-12-18T01:03:14;-3.30;82.80
7562;DHT22;3822;48.784;9.174;2022-12-18T01:05:42;-3.30;82.70
7562;DHT22;3822;48.784;9.174;2022-12-18T01:08:08;-3.20;82.70
7562;DHT22;3822;48.784;9.174;2022-12-18T01:10:54;-3.20;82.60
7562;DHT22;3822;48.784;9.174;2022-12-18T01:13:20;-3.20;82.60
7562;DHT22;3822;48.784;9.174;2022-12-18T01:15:51;-3.20;82.60
7562;DHT22;3822;48.784;9.174;2022-12-18T01:18:18;-3.10;82.70
7562;DHT22;3822;48.784;9.174;2022-12-18T01:20:44;-3.10;82.70
7562;DHT22;3822;48.784;9.174;2022-12-18T01:23:11;-3.00;82.70
7562;DHT22;3822;48.784;9.174;2022-12-18T01:25:37;-3.10;82.50
7562;DHT22;3822;48.784;9.174;2022-12-18T01:28:05;-3.00;82.70
7562;DHT22;3822;48.784;9.174;2022-12-18T01:30:34;-3.00;82.70
7562;DHT22;3822;48.784;9.174;2022-12-18T01:33:01;-3.10;82.60
7562;DHT22;3822;48.784;9.174;2022-12-18T01:35:27;-3.00;82.80
7562;DHT22;3822;48.784;9.174;2022-12-18T01:37:54;-3.00;82.80
7562;DHT22;3822;48.784;9.174;2022-12-18T01:40:22;-2.90;82.90
7562;DHT22;3822;48.784;9.174;2022-12-18T01:42:52;-1.70;83.90
7562;DHT22;3822;48.784;9.174;2022-12-18T01:45:24;-2.90;82.70
7562;DHT22;3822;48.784;9.174;2022-12-18T01:48:07;-2.90;82.70
7562;DHT22;3822;48.784;9.174;2022-12-18T01:50:42;-2.90;82.70
7562;DHT22;3822;48.784;9.174;2022-12-18T01:53:18;-2.90;82.80
7562;DHT22;3822;48.784;9.174;2022-12-18T01:55:47;-2.80;82.70
7562;DHT22;3822;48.784;9.174;2022-12-18T01:58:20;-2.90;82.50
7562;DHT22;3822;48.784;9.174;2022-12-18T02:00:50;-2.90;82.60
7562;DHT22;3822;48.784;9.174;2022-12-18T02:03:17;-2.90;82.60
7562;DHT22;3822;48.784;9.174;2022-12-18T02:06:15;-2.90;82.70
7562;DHT22;3822;48.784;9.174;2022-12-18T02:09:11;-3.00;82.40
7562;DHT22;3822;48.784;9.174;2022-12-18T02:12:06;-3.10;82.40
7562;DHT22;3822;48.784;9.174;2022-12-18T02:14:45;-3.10;82.50
7562;DHT22;3822;48.784;9.174;2022-12-18T02:17:21;-3.20;82.30
7562;DHT22;3822;48.784;9.174;2022-12-18T02:23:17;-3.20;82.60
7562;DHT22;3822;48.784;9.174;2022-12-18T02:26:05;-3.20;82.60
7562;DHT22;3822;48.784;9.174;2022-12-18T02:29:12;-3.20;82.60
7562;DHT22;3822;48.784;9.174;2022-12-18T02:32:09;-3.20;82.70
7562;DHT22;3822;48.784;9.174;2022-12-18T02:34:39;-3.20;82.70
7562;DHT22;3822;48.784;9.174;2022-12-18T02:37:10;-3.10;82.90
7562;DHT22;3822;48.784;9.174;2022-12-18T02:39:42;-2.90;83.00
7562;DHT22;3822;48.784;9.174;2022-12-18T02:42:10;-3.20;82.70
7562;DHT22;3822;48.784;9.174;2022-12-18T02:44:44;-3.30;82.60
7562;DHT22;3822;48.784;9.174;2022-12-18T02:47:14;-3.30;82.80
7562;DHT22;3822;48.784;9.174;2022-12-18T03:01:21;-3.50;82.90
7562;DHT22;3822;48.784;9.174;2022-12-18T03:03:56;-3.50;83.00
7562;DHT22;3822;48.784;9.174;2022-12-18T03:06:33;-3.50;83.00
7562;DHT22;3822;48.784;9.174;2022-12-18T03:09:07;-3.50;83.00
7562;DHT22;3822;48.784;9.174;2022-12-18T03:11:40;-3.50;83.10
7562;DHT22;3822;48.784;9.174;2022-12-18T03:14:29;-3.50;83.10
7562;DHT22;3822;48.784;9.174;2022-12-18T03:16:59;-2.80;83.60
7562;DHT22;3822;48.784;9.174;2022-12-18T03:19:31;-3.50;83.00
7562;DHT22;3822;48.784;9.174;2022-12-18T03:22:01;-3.50;83.10
7562;DHT22;3822;48.784;9.174;2022-12-18T03:24:31;-2.70;83.90
7562;DHT22;3822;48.784;9.174;2022-12-18T03:27:04;-1.90;84.70
7562;DHT22;3822;48.784;9.174;2022-12-18T03:29:37;-3.40;83.20
7562;DHT22;3822;48.784;9.174;2022-12-18T03:32:18;-3.40;83.10
7562;DHT22;3822;48.784;9.174;2022-12-18T03:34:49;-3.30;83.10
7562;DHT22;3822;48.784;9.174;2022-12-18T03:37:17;-3.30;83.10
7562;DHT22;3822;48.784;9.174;2022-12-18T03:39:43;-3.30;82.90
7562;DHT22;3822;48.784;9.174;2022-12-18T03:42:29;-3.30;82.90
7562;DHT22;3822;48.784;9.174;2022-12-18T03:45:34;-1.70;84.30
7562;DHT22;3822;48.784;9.174;2022-12-18T03:48:49;-3.30;82.80
7562;DHT22;3822;48.784;9.174;2022-12-18T03:51:01;-3.30;82.70
7562;DHT22;3822;48.784;9.174;2022-12-18T03:56:16;-3.30;82.60
7562;DHT22;3822;48.784;9.174;2022-12-18T03:58:43;-3.30;82.60
7562;DHT22;3822;48.784;9.174;2022-12-18T04:01:13;-3.20;83.30
7562;DHT22;3822;48.784;9.174;2022-12-18T04:03:42;-3.20;82.60
7562;DHT22;3822;48.784;9.174;2022-12-18T04:06:11;-3.20;82.60
7562;DHT22;3822;48.784;9.174;2022-12-18T04:08:38;-3.20;82.30
7562;DHT22;3822;48.784;9.174;2022-12-18T04:11:06;-3.30;82.20
7562;DHT22;3822;48.784;9.174;2022-12-18T04:13:35;-3.30;82.30
7562;DHT22;3822;48.784;9.174;2022-12-18T04:16:03;-3.30;82.40
7562;DHT22;3822;48.784;9.174;2022-12-18T04:18:33;-3.30;82.30
7562;DHT22;3822;48.784;9.174;2022-12-18T04:20:59;-3.30;82.50
7562;DHT22;3822;48.784;9.174;2022-12-18T04:23:26;-3.30;82.40
7562;DHT22;3822;48.784;9.174;2022-12-18T04:25:53;-3.30;82.50
7562;DHT22;3822;48.784;9.174;2022-12-18T04:28:19;-3.30;82.40
7562;DHT22;3822;48.784;9.174;2022-12-18T04:30:51;-3.20;82.40
7562;DHT22;3822;48.784;9.174;2022-12-18T04:33:18;-1.80;83.30
7562;DHT22;3822;48.784;9.174;2022-12-18T04:35:44;-3.30;81.70
7562;DHT22;3822;48.784;9.174;2022-12-18T04:38:11;-3.30;81.50
7562;DHT22;3822;48.784;9.174;2022-12-18T04:40:38;-2.90;81.90
7562;DHT22;3822;48.784;9.174;2022-12-18T04:43:05;-3.40;81.40
7562;DHT22;3822;48.784;9.174;2022-12-18T04:45:32;-3.50;81.40
7562;DHT22;3822;48.784;9.174;2022-12-18T04:47:59;-3.50;81.40
7562;DHT22;3822;48.784;9.174;2022-12-18T04:50:27;-3.50;81.40
7562;DHT22;3822;48.784;9.174;2022-12-18T04:52:54;-3.50;81.30
7562;DHT22;3822;48.784;9.174;2022-12-18T04:55:21;-2.50;82.20
7562;DHT22;3822;48.784;9.174;2022-12-18T04:57:47;-3.60;81.20
7562;DHT22;3822;48.784;9.174;2022-12-18T05:00:14;-3.60;81.20
7562;DHT22;3822;48.784;9.174;2022-12-18T05:02:41;-3.60;81.00
7562;DHT22;3822;48.784;9.174;2022-12-18T05:05:08;-3.60;81.00
7562;DHT22;3822;48.784;9.174;2022-12-18T05:07:35;-3.60;81.00
7562;DHT22;3822;48.784;9.174;2022-12-18T05:10:01;-3.60;81.00
7562;DHT22;3822;48.784;9.174;2022-12-18T05:12:28;-3.60;81.10
7562;DHT22;3822;48.784;9.174;2022-12-18T05:14:55;-3.60;81.10
7562;DHT22;3822;48.784;9.174;2022-12-18T05:17:21;-3.60;81.20
7562;DHT22;3822;48.784;9.174;2022-12-18T05:19:48;-1.80;82.80
7562;DHT22;3822;48.784;9.174;2022-12-18T05:22:14;-3.60;81.20
7562;DHT22;3822;48.784;9.174;2022-12-18T05:24:41;-3.60;81.20
7562;DHT22;3822;48.784;9.174;2022-12-18T05:27:07;-3.60;81.00
7562;DHT22;3822;48.784;9.174;2022-12-18T05:29:34;-3.60;80.90
7562;DHT22;3822;48.784;9.174;2022-12-18T05:32:00;-3.60;80.70
7562;DHT22;3822;48.784;9.174;2022-12-18T05:34:28;-3.60;80.70
7562;DHT22;3822;48.784;9.174;2022-12-18T05:36:54;-3.60;80.70
7562;DHT22;3822;48.784;9.174;2022-12-18T05:39:21;-3.60;80.70
7562;DHT22;3822;48.784;9.174;2022-12-18T05:41:47;-3.70;80.40
7562;DHT22;3822;48.784;9.174;2022-12-18T05:44:14;-3.70;80.50
7562;DHT22;3822;48.784;9.174;2022-12-18T05:46:40;-3.70;80.50
7562;DHT22;3822;48.784;9.174;2022-12-18T05:49:06;-3.70;80.40
7562;DHT22;3822;48.784;9.174;2022-12-18T05:51:33;-3.70;80.30
7562;DHT22;3822;48.784;9.174;2022-12-18T05:54:00;-3.70;80.30
7562;DHT22;3822;48.784;9.174;2022-12-18T05:56:26;-3.70;80.20
7562;DHT22;3822;48.784;9.174;2022-12-18T05:58:53;-3.70;80.20
7562;DHT22;3822;48.784;9.174;2022-12-18T06:01:24;-3.70;80.10
7562;DHT22;3822;48.784;9.174;2022-12-18T06:03:52;-3.70;80.20
7562;DHT22;3822;48.784;9.174;2022-12-18T06:06:22;-3.70;80.30
7562;DHT22;3822;48.784;9.174;2022-12-18T06:08:51;-3.80;80.10
7562;DHT22;3822;48.784;9.174;2022-12-18T06:11:21;-3.70;80.10
7562;DHT22;3822;48.784;9.174;2022-12-18T06:13:53;-3.80;80.00
7562;DHT22;3822;48.784;9.174;2022-12-18T06:16:20;-3.80;79.90
7562;DHT22;3822;48.784;9.174;2022-12-18T06:18:47;-3.80;80.00
7562;DHT22;3822;48.784;9.174;2022-12-18T06:21:13;-3.70;80.00
7562;DHT22;3822;48.784;9.174;2022-12-18T06:23:40;-3.70;80.00
7562;DHT22;3822;48.784;9.174;2022-12-18T06:26:11;-3.70;79.90
7562;DHT22;3822;48.784;9.174;2022-12-18T06:28:39;-3.80;79.70
7562;DHT22;3822;48.784;9.174;2022-12-18T06:31:06;-3.80;79.80
7562;DHT22;3822;48.784;9.174;2022-12-18T06:33:34;-3.80;79.70
7562;DHT22;3822;48.784;9.174;2022-12-18T06:36:06;-3.80;79.60
7562;DHT22;3822;48.784;9.174;2022-12-18T06:38:35;-3.80;79.60
7562;DHT22;3822;48.784;9.174;2022-12-18T06:41:12;-3.80;79.60
7562;DHT22;3822;48.784;9.174;2022-12-18T06:43:39;-3.80;79.60
7562;DHT22;3822;48.784;9.174;2022-12-18T06:46:06;-3.80;79.40
7562;DHT22;3822;48.784;9.174;2022-12-18T06:48:33;-3.90;79.30
7562;DHT22;3822;48.784;9.174;2022-12-18T06:50:59;-3.50;79.60
7562;DHT22;3822;48.784;9.174;2022-12-18T06:53:27;-3.90;79.20
7562;DHT22;3822;48.784;9.174;2022-12-18T06:56:00;-3.90;79.30
7562;DHT22;3822;48.784;9.174;2022-12-18T06:58:28;-3.90;79.30
7562;DHT22;3822;48.784;9.174;2022-12-18T07:01:02;-3.90;79.40
7562;DHT22;3822;48.784;9.174;2022-12-18T07:03:34;-3.90;79.30
7562;DHT22;3822;48.784;9.174;2022-12-18T07:06:01;-4.00;79.30
7562;DHT22;3822;48.784;9.174;2022-12-18T07:08:30;-4.00;79.20
7562;DHT22;3822;48.784;9.174;2022-12-18T07:10:57;-4.00;79.30
7562;DHT22;3822;48.784;9.174;2022-12-18T07:13:24;-4.00;79.20
7562;DHT22;3822;48.784;9.174;2022-12-18T07:15:50;-4.00;79.20
7562;DHT22;3822;48.784;9.174;2022-12-18T07:18:17;-4.00;79.20
7562;DHT22;3822;48.784;9.174;2022-12-18T07:20:43;-4.10;79.10
7562;DHT22;3822;48.784;9.174;2022-12-18T07:23:10;-4.10;79.00
7562;DHT22;3822;48.784;9.174;2022-12-18T07:25:37;-4.10;79.00
7562;DHT22;3822;48.784;9.174;2022-12-18T07:28:04;-4.10;79.00
7562;DHT22;3822;48.784;9.174;2022-12-18T07:30:30;-3.80;79.40
7562;DHT22;3822;48.784;9.174;2022-12-18T07:32:57;-4.10;79.00
7562;DHT22;3822;48.784;9.174;2022-12-18T07:35:23;-4.10;79.10
7562;DHT22;3822;48.784;9.174;2022-12-18T07:37:50;-4.10;79.10
7562;DHT22;3822;48.784;9.174;2022-12-18T07:40:19;-4.20;79.00
7562;DHT22;3822;48.784;9.174;2022-12-18T07:42:46;-3.40;80.10
7562;DHT22;3822;48.784;9.174;2022-12-18T07:45:12;-4.20;79.30
7562;DHT22;3822;48.784;9.174;2022-12-18T07:47:39;-4.20;79.40
7562;DHT22;3822;48.784;9.174;2022-12-18T07:50:07;-4.10;79.60
7562;DHT22;3822;48.784;9.174;2022-12-18T07:52:36;-4.10;79.60
7562;DHT22;3822;48.784;9.174;2022-12-18T07:55:03;-4.10;79.30
7562;DHT22;3822;48.784;9.174;2022-12-18T07:57:29;-4.10;79.30
7562;DHT22;3822;48.784;9.174;2022-12-18T07:59:56;-4.00;79.40
7562;DHT22;3822;48.784;9.174;2022-12-18T08:02:22;-4.00;79.40
7562;DHT22;3822;48.784;9.174;2022-12-18T08:04:49;-4.00;79.20
7562;DHT22;3822;48.784;9.174;2022-12-18T08:07:15;-4.00;78.80
7562;DHT22;3822;48.784;9.174;2022-12-18T08:09:42;-4.00;78.80
7562;DHT22;3822;48.784;9.174;2022-12-18T08:12:08;-4.10;79.30
7562;DHT22;3822;48.784;9.174;2022-12-18T08:14:35;-4.00;79.90
7562;DHT22;3822;48.784;9.174;2022-12-18T08:17:01;-4.10;79.70
7562;DHT22;3822;48.784;9.174;2022-12-18T08:19:29;-4.10;79.60
7562;DHT22;3822;48.784;9.174;2022-12-18T08:21:55;-4.10;79.50
7562;DHT22;3822;48.784;9.174;2022-12-18T08:24:23;-4.10;79.60
7562;DHT22;3822;48.784;9.174;2022-12-18T08:26:50;-4.00;79.40
7562;DHT22;3822;48.784;9.174;2022-12-18T08:29:17;-4.10;79.10
7562;DHT22;3822;48.784;9.174;2022-12-18T08:31:43;-4.10;79.30
7562;DHT22;3822;48.784;9.174;2022-12-18T08:34:10;-4.00;79.40
7562;DHT22;3822;48.784;9.174;2022-12-18T08:36:36;-4.00;79.40
7562;DHT22;3822;48.784;9.174;2022-12-18T08:39:03;-2.90;80.20
7562;DHT22;3822;48.784;9.174;2022-12-18T08:41:29;-3.90;79.30
7562;DHT22;3822;48.784;9.174;2022-12-18T08:43:56;-3.90;79.30
7562;DHT22;3822;48.784;9.174;2022-12-18T08:46:42;-3.90;79.20
7562;DHT22;3822;48.784;9.174;2022-12-18T08:49:11;-3.80;79.20
7562;DHT22;3822;48.784;9.174;2022-12-18T08:51:38;-3.80;79.30
7562;DHT22;3822;48.784;9.174;2022-12-18T08:54:05;-3.80;79.30
7562;DHT22;3822;48.784;9.174;2022-12-18T08:56:33;-3.70;79.40
7562;DHT22;3822;48.784;9.174;2022-12-18T08:59:00;-2.50;80.40
7562;DHT22;3822;48.784;9.174;2022-12-18T09:01:26;-3.60;79.40
7562;DHT22;3822;48.784;9.174;2022-12-18T09:03:53;-3.60;79.20
7562;DHT22;3822;48.784;9.174;2022-12-18T09:06:21;-3.60;79.20
7562;DHT22;3822;48.784;9.174;2022-12-18T09:08:48;-3.60;79.20
7562;DHT22;3822;48.784;9.174;2022-12-18T09:11:24;-3.60;79.30
7562;DHT22;3822;48.784;9.174;2022-12-18T09:13:53;-3.50;79.40
7562;DHT22;3822;48.784;9.174;2022-12-18T09:16:20;-3.50;79.40
7562;DHT22;3822;48.784;9.174;2022-12-18T09:18:47;-3.50;79.60
7562;DHT22;3822;48.784;9.174;2022-12-18T09:21:20;-3.40;79.60
7562;DHT22;3822;48.784;9.174;2022-12-18T09:23:51;-3.50;79.50
7562;DHT22;3822;48.784;9.174;2022-12-18T09:26:18;-3.10;80.20
7562;DHT22;3822;48.784;9.174;2022-12-18T09:28:45;-3.50;80.00
7562;DHT22;3822;48.784;9.174;2022-12-18T09:31:12;-3.60;80.00
7562;DHT22;3822;48.784;9.174;2022-12-18T09:33:39;-3.60;80.30
7562;DHT22;3822;48.784;9.174;2022-12-18T09:36:08;-3.50;80.60
7562;DHT22;3822;48.784;9.174;2022-12-18T09:38:35;-3.60;80.60
7562;DHT22;3822;48.784;9.174;2022-12-18T09:44:26;-3.50;81.00
7562;DHT22;3822;48.784;9.174;2022-12-18T09:49:59;-3.50;81.20
7562;DHT22;3822;48.784;9.174;2022-12-18T09:52:34;-3.40;81.30
7562;DHT22;3822;48.784;9.174;2022-12-18T09:55:37;-3.30;81.40
7562;DHT22;3822;48.784;9.174;2022-12-18T09:58:39;-3.20;81.50
7562;DHT22;3822;48.784;9.174;2022-12-18T10:01:27;-3.10;81.60
7562;DHT22;3822;48.784;9.174;2022-12-18T10:03:55;-3.00;81.60
7562;DHT22;3822;48.784;9.174;2022-12-18T10:06:42;-2.90;81.60
7562;DHT22;3822;48.784;9.174;2022-12-18T10:10:06;-2.80;82.80
7562;DHT22;3822;48.784;9.174;2022-12-18T10:13:23;-2.50;85.20
7562;DHT22;3822;48.784;9.174;2022-12-18T10:19:15;-2.20;84.70
7562;DHT22;3822;48.784;9.174;2022-12-18T10:22:07;-2.10;84.70
7562;DHT22;3822;48.784;9.174;2022-12-18T10:27:57;-1.90;84.80
7562;DHT22;3822;48.784;9.174;2022-12-18T10:30:25;-1.80;83.90
7562;DHT22;3822;48.784;9.174;2022-12-18T10:32:52;-1.70;83.80
7562;DHT22;3822;48.784;9.174;2022-12-18T10:35:26;-0.50;84.80
7562;DHT22;3822;48.784;9.174;2022-12-18T10:41:00;-1.20;83.40
7562;DHT22;3822;48.784;9.174;2022-12-18T10:43:36;-1.20;83.30
7562;DHT22;3822;48.784;9.174;2022-12-18T10:51:26;-0.80;83.00
7562;DHT22;3822;48.784;9.174;2022-12-18T10:54:05;-0.60;83.30
7562;DHT22;3822;48.784;9.174;2022-12-18T10:56:36;-0.40;85.60
7562;DHT22;3822;48.784;9.174;2022-12-18T10:59:07;-0.20;85.80
7562;DHT22;3822;48.784;9.174;2022-12-18T11:01:51;0.00;86.50
7562;DHT22;3822;48.784;9.174;2022-12-18T11:04:25;0.20;87.30
7562;DHT22;3822;48.784;9.174;2022-12-18T11:07:01;0.40;87.20
7562;DHT22;3822;48.784;9.174;2022-12-18T11:09:33;0.60;86.50
7562;DHT22;3822;48.784;9.174;2022-12-18T11:12:25;0.70;85.10
7562;DHT22;3822;48.784;9.174;2022-12-18T11:14:54;0.70;83.70
7562;DHT22;3822;48.784;9.174;2022-12-18T11:17:32;0.80;83.20
7562;DHT22;3822;48.784;9.174;2022-12-18T11:20:19;0.90;82.60
7562;DHT22;3822;48.784;9.174;2022-12-18T11:22:57;1.00;82.50
7562;DHT22;3822;48.784;9.174;2022-12-18T11:25:27;1.20;82.70
7562;DHT22;3822;48.784;9.174;2022-12-18T11:30:44;1.50;82.40
7562;DHT22;3822;48.784;9.174;2022-12-18T11:33:21;1.70;81.00
7562;DHT22;3822;48.784;9.174;2022-12-18T11:35:57;1.80;81.20
7562;DHT22;3822;48.784;9.174;2022-12-18T11:38:38;2.00;81.20
7562;DHT22;3822;48.784;9.174;2022-12-18T11:41:39;2.20;81.20
7562;DHT22;3822;48.784;9.174;2022-12-18T11:44:51;2.40;81.10
7562;DHT22;3822;48.784;9.174;2022-12-18T11:50:50;2.90;80.60
7562;DHT22;3822;48.784;9.174;2022-12-18T11:53:19;3.10;80.30
7562;DHT22;3822;48.784;9.174;2022-12-18T11:58:46;3.40;79.80
7562;DHT22;3822;48.784;9.174;2022-12-18T12:01:21;3.60;78.90
7562;DHT22;3822;48.784;9.174;2022-12-18T12:09:46;4.10;78.60
7562;DHT22;3822;48.784;9.174;2022-12-18T12:12:39;4.30;78.30
7562;DHT22;3822;48.784;9.174;2022-12-18T12:15:47;4.40;77.70
7562;DHT22;3822;48.784;9.174;2022-12-18T12:30:00;5.00;75.70
7562;DHT22;3822;48.784;9.174;2022-12-18T12:35:39;5.10;74.50
7562;DHT22;3822;48.784;9.174;2022-12-18T12:38:21;5.10;74.10
7562;DHT22;3822;48.784;9.174;2022-12-18T12:41:09;5.10;74.10
7562;DHT22;3822;48.784;9.174;2022-12-18T12:44:02;5.20;73.90
7562;DHT22;3822;48.784;9.174;2022-12-18T12:46:34;5.10;73.60
7562;DHT22;3822;48.784;9.174;2022-12-18T12:49:08;5.20;73.10
7562;DHT22;3822;48.784;9.174;2022-12-18T12:51:45;5.10;72.90
7562;DHT22;3822;48.784;9.174;2022-12-18T12:54:23;6.80;74.30
7562;DHT22;3822;48.784;9.174;2022-12-18T12:59:48;5.10;72.20
7562;DHT22;3822;48.784;9.174;2022-12-18T13:08:55;5.10;72.20
7562;DHT22;3822;48.784;9.174;2022-12-18T13:11:37;5.10;71.80
7562;DHT22;3822;48.784;9.174;2022-12-18T13:14:34;5.10;71.60
7562;DHT22;3822;48.784;9.174;2022-12-18T13:20:07;5.00;71.40
7562;DHT22;3822;48.784;9.174;2022-12-18T13:36:23;4.60;71.20
7562;DHT22;3822;48.784;9.174;2022-12-18T13:41:41;4.50;71.20
7562;DHT22;3822;48.784;9.174;2022-12-18T13:44:28;3.80;70.70
7562;DHT22;3822;48.784;9.174;2022-12-18T13:47:02;4.50;71.50
7562;DHT22;3822;48.784;9.174;2022-12-18T13:49:38;4.40;71.30
7562;DHT22;3822;48.784;9.174;2022-12-18T13:52:36;4.40;71.30
7562;DHT22;3822;48.784;9.174;2022-12-18T13:55:07;4.30;71.00
7562;DHT22;3822;48.784;9.174;2022-12-18T13:57:40;4.30;71.20
7562;DHT22;3822;48.784;9.174;2022-12-18T14:00:33;4.20;71.30
7562;DHT22;3822;48.784;9.174;2022-12-18T14:03:00;4.20;71.70
7562;DHT22;3822;48.784;9.174;2022-12-18T14:05:29;4.20;72.30
7562;DHT22;3822;48.784;9.174;2022-12-18T14:08:07;4.20;72.50
7562;DHT22;3822;48.784;9.174;2022-12-18T14:10:43;4.20;72.50
7562;DHT22;3822;48.784;9.174;2022-12-18T14:15:54;4.10;72.20
7562;DHT22;3822;48.784;9.174;2022-12-18T14:20:53;4.10;72.40
7562;DHT22;3822;48.784;9.174;2022-12-18T14:23:39;4.10;72.50
7562;DHT22;3822;48.784;9.174;2022-12-18T14:26:27;4.20;72.80
7562;DHT22;3822;48.784;9.174;2022-12-18T14:28:56;4.00;72.70
7562;DHT22;3822;48.784;9.174;2022-12-18T14:31:26;4.00;72.80
7562;DHT22;3822;48.784;9.174;2022-12-18T14:33:54;4.10;73.00
7562;DHT22;3822;48.784;9.174;2022-12-18T14:36:22;5.70;74.50
7562;DHT22;3822;48.784;9.174;2022-12-18T14:38:53;3.90;73.00
7562;DHT22;3822;48.784;9.174;2022-12-18T14:41:24;3.80;73.70
7562;DHT22;3822;48.784;9.174;2022-12-18T14:43:53;3.80;73.10
7562;DHT22;3822;48.784;9.174;2022-12-18T14:49:01;3.80;73.30
7562;DHT22;3822;48.784;9.174;2022-12-18T14:51:33;3.60;73.20
7562;DHT22;3822;48.784;9.174;2022-12-18T14:54:03;3.60;73.40
7562;DHT22;3822;48.784;9.174;2022-12-18T14:56:37;3.60;73.50
7562;DHT22;3822;48.784;9.174;2022-12-18T14:59:22;3.50;73.50
7562;DHT22;3822;48.784;9.174;2022-12-18T15:02:04;3.40;73.70
7562;DHT22;3822;48.784;9.174;2022-12-18T15:04:40;3.30;73.90
7562;DHT22;3822;48.784;9.174;2022-12-18T15:07:09;3.40;74.40
7562;DHT22;3822;48.784;9.174;2022-12-18T15:09:44;3.30;74.40
7562;DHT22;3822;48.784;9.174;2022-12-18T15:22:34;3.00;74.30
7562;DHT22;3822;48.784;9.174;2022-12-18T15:25:04;2.90;74.40
7562;DHT22;3822;48.784;9.174;2022-12-18T15:27:56;2.80;74.40
7562;DHT22;3822;48.784;9.174;2022-12-18T15:30:24;4.00;75.60
7562;DHT22;3822;48.784;9.174;2022-12-18T15:32:51;2.70;74.60
7562;DHT22;3822;48.784;9.174;2022-12-18T15:35:23;2.70;74.80
7562;DHT22;3822;48.784;9.174;2022-12-18T15:37:51;2.60;74.90
7562;DHT22;3822;48.784;9.174;2022-12-18T15:40:23;2.60;74.90
7562;DHT22;3822;48.784;9.174;2022-12-18T15:42:53;2.60;75.00
7562;DHT22;3822;48.784;9.174;2022-12-18T15:45:39;2.50;75.00
7562;DHT22;3822;48.784;9.174;2022-12-18T15:48:24;2.50;75.10
7562;DHT22;3822;48.784;9.174;2022-12-18T15:50:52;2.40;75.20
7562;DHT22;3822;48.784;9.174;2022-12-18T15:53:21;2.40;75.20
7562;DHT22;3822;48.784;9.174;2022-12-18T15:55:48;3.10;75.90
7562;DHT22;3822;48.784;9.174;2022-12-18T15:58:33;2.30;75.30
7562;DHT22;3822;48.784;9.174;2022-12-18T16:01:00;2.30;75.40
7562;DHT22;3822;48.784;9.174;2022-12-18T16:03:27;2.20;75.50
7562;DHT22;3822;48.784;9.174;2022-12-18T16:05:53;2.20;75.60
7562;DHT22;3822;48.784;9.174;2022-12-18T16:08:20;2.10;75.40
7562;DHT22;3822;48.784;9.174;2022-12-18T16:10:46;2.00;75.40
7562;DHT22;3822;48.784;9.174;2022-12-18T16:13:16;2.50;76.00
7562;DHT22;3822;48.784;9.174;2022-12-18T16:15:48;1.80;75.50
7562;DHT22;3822;48.784;9.174;2022-12-18T16:18:15;1.80;75.60
7562;DHT22;3822;48.784;9.174;2022-12-18T16:20:41;1.70;75.80
7562;DHT22;3822;48.784;9.174;2022-12-18T16:23:26;1.60;76.00
7562;DHT22;3822;48.784;9.174;2022-12-18T16:26:13;1.60;76.40
7562;DHT22;3822;48.784;9.174;2022-12-18T16:28:40;1.50;76.80
7562;DHT22;3822;48.784;9.174;2022-12-18T16:31:07;2.40;77.70
7562;DHT22;3822;48.784;9.174;2022-12-18T16:33:33;1.40;76.90
7562;DHT22;3822;48.784;9.174;2022-12-18T16:36:02;1.40;77.10
7562;DHT22;3822;48.784;9.174;2022-12-18T16:38:29;1.40;77.20
7562;DHT22;3822;48.784;9.174;2022-12-18T16:40:55;1.30;77.20
7562;DHT22;3822;48.784;9.174;2022-12-18T16:43:40;1.30;77.30
7562;DHT22;3822;48.784;9.174;2022-12-18T16:46:06;1.30;77.30
7562;DHT22;3822;48.784;9.174;2022-12-18T16:48:33;1.20;77.30
7562;DHT22;3822;48.784;9.174;2022-12-18T16:51:04;1.30;77.50
7562;DHT22;3822;48.784;9.174;2022-12-18T16:53:32;1.30;77.60
7562;DHT22;3822;48.784;9.174;2022-12-18T16:55:59;1.30;77.60
7562;DHT22;3822;48.784;9.174;2022-12-18T16:58:25;1.30;77.70
7562;DHT22;3822;48.784;9.174;2022-12-18T17:00:52;1.30;77.70
7562;DHT22;3822;48.784;9.174;2022-12-18T17:03:18;1.30;77.80
7562;DHT22;3822;48.784;9.174;2022-12-18T17:05:45;1.20;77.70
7562;DHT22;3822;48.784;9.174;2022-12-18T17:08:11;1.20;77.80
7562;DHT22;3822;48.784;9.174;2022-12-18T17:10:37;1.20;77.90
7562;DHT22;3822;48.784;9.174;2022-12-18T17:13:04;1.20;78.00
7562;DHT22;3822;48.784;9.174;2022-12-18T17:15:34;1.20;78.00
7562;DHT22;3822;48.784;9.174;2022-12-18T17:18:02;1.20;78.10
7562;DHT22;3822;48.784;9.174;2022-12-18T17:20:31;1.20;78.10
7562;DHT22;3822;48.784;9.174;2022-12-18T17:22:58;1.20;78.80
7562;DHT22;3822;48.784;9.174;2022-12-18T17:25:24;1.20;78.30
7562;DHT22;3822;48.784;9.174;2022-12-18T17:27:51;2.80;79.80
7562;DHT22;3822;48.784;9.174;2022-12-18T17:30:17;1.20;78.30
7562;DHT22;3822;48.784;9.174;2022-12-18T17:32:44;1.10;78.40
7562;DHT22;3822;48.784;9.174;2022-12-18T17:35:10;1.20;79.60
7562;DHT22;3822;48.784;9.174;2022-12-18T17:37:37;1.20;79.70
7562;DHT22;3822;48.784;9.174;2022-12-18T17:40:04;1.20;79.60
7562;DHT22;3822;48.784;9.174;2022-12-18T17:42:31;1.20;79.40
7562;DHT22;3822;48.784;9.174;2022-12-18T17:44:57;1.20;79.30
7562;DHT22;3822;48.784;9.174;2022-12-18T17:47:24;1.90;80.00
7562;DHT22;3822;48.784;9.174;2022-12-18T17:49:50;1.10;79.20
7562;DHT22;3822;48.784;9.174;2022-12-18T17:52:16;1.10;79.20
7562;DHT22;3822;48.784;9.174;2022-12-18T17:54:43;1.10;79.20
7562;DHT22;3822;48.784;9.174;2022-12-18T17:57:10;1.10;79.20
7562;DHT22;3822;48.784;9.174;2022-12-18T17:59:36;1.10;79.20
7562;DHT22;3822;48.784;9.174;2022-12-18T18:02:04;1.10;79.20
7562;DHT22;3822;48.784;9.174;2022-12-18T18:04:30;1.10;79.20
7562;DHT22;3822;48.784;9.174;2022-12-18T18:06:57;1.10;79.10
7562;DHT22;3822;48.784;9.174;2022-12-18T18:09:23;1.10;79.20
7562;DHT22;3822;48.784;9.174;2022-12-18T18:11:50;1.10;79.20
7562;DHT22;3822;48.784;9.174;2022-12-18T18:14:34;1.10;79.10
7562;DHT22;3822;48.784;9.174;2022-12-18T18:17:04;1.10;79.10
7562;DHT22;3822;48.784;9.174;2022-12-18T18:19:32;1.10;79.10
7562;DHT22;3822;48.784;9.174;2022-12-18T18:21:58;1.10;79.10
7562;DHT22;3822;48.784;9.174;2022-12-18T18:24:25;1.00;79.00
7562;DHT22;3822;48.784;9.174;2022-12-18T18:26:52;2.20;80.00
7562;DHT22;3822;48.784;9.174;2022-12-18T18:29:21;1.00;79.00
7562;DHT22;3822;48.784;9.174;2022-12-18T18:31:49;1.00;78.90